AirNav   Air Wisconsin Up To $57,000 Bonus
 
 1579 users online  

55Y Rushford Municipal Airport/Robert W Bunke Field
Rushford, Minnesota, USA

GOING TO RUSHFORD?


FAA INFORMATION EFFECTIVE 06 OCTOBER 2022

Location

FAA Identifier: 55Y
Lat/Long: 43-48-56.9700N 091-49-48.3420W
43-48.949500N 091-49.805700W
43.8158250,-91.8300950
(estimated)
Elevation: 1211 ft. / 369.1 m (surveyed)
Variation: 01E (1995)
From city: 3 miles W of RUSHFORD, MN
Time zone: UTC -5 (UTC -6 during Standard Time)
Zip code: 55971

Airport Operations

Airport use: Open to the public
Activation date: 09/1975
Control tower: no
ARTCC: MINNEAPOLIS CENTER
FSS: PRINCETON FLIGHT SERVICE STATION
NOTAMs facility: PNM (NOTAM-D service available)
Attendance: UNATNDD
Wind indicator: lighted
Segmented circle: no
Lights: ACTVT PAPI RWY 16 & 34; MIRL RWY 16/34 - CTAF.
Beacon: white-green (lighted land airport)
Operates sunset to sunrise.

Airport Communications

CTAF: 122.9
ROCHESTER APPROACH: 119.8 [0500-2300]
ROCHESTER DEPARTURE: 119.8 [0500-2300]
WX AWOS-3 at ONA (17 nm N): 118.075 (507-453-2991)
WX AWOS-3 at FKA (17 nm SW): 118.550 (507-765-2182)
  • APCH/DEP SVC PRVDD BY MINNEAPOLIS ARTCC ON FREQS 132.35/307.3 (ROCHESTER RCAG) WHEN ROCHESTER APCH CLSD.

Nearby radio navigation aids

VOR radial/distance  VOR name  Freq  Var
ODIr249/16.7NODINE VORTAC117.9001E
RSTr082/33.3ROCHESTER VOR/DME112.0005E

Airport Services

Fuel available: 100LL
100LL:FUEL AVBL SELF SVC VIA CREDIT CARD.
Parking: tiedowns
Airframe service: NONE
Powerplant service: NONE
Bottled oxygen: NONE
Bulk oxygen: NONE

Runway Information

Runway 16/34

Dimensions: 3200 x 60 ft. / 975 x 18 m
Surface: asphalt, in good condition
Runway edge lights: medium intensity
RUNWAY 16  RUNWAY 34
Latitude: 43-49.199550N43-48.699883N
Longitude: 091-49.921217W091-49.691417W
Elevation: 1211.0 ft.1183.0 ft.
Traffic pattern: leftleft
Runway heading: 161 magnetic, 162 true341 magnetic, 342 true
Markings: nonprecision, in good conditionnonprecision, in good condition
Visual slope indicator: 2-light PAPI on left (3.00 degrees glide path)2-light PAPI on left (3.00 degrees glide path)
Touchdown point: no, no lightsyes, no lights
Obstructions: none31 ft. trees, 379 ft. from runway, 260 ft. right of centerline, 5:1 slope to clear

Airport Ownership and Management from official FAA records

Ownership: Publicly-owned
Owner: CITY OF RUSHFORD
101 N MILL ST, PO BOX 430
RUSHFORD, MN 55971-0430
Phone 507-864-2444
Manager: TONY CHLADEK
101 N MILL ST
RUSHFORD, MN 55971-9195
Phone 507-864-2444
RUSHFORD@ACEGROUP.CC.

Airport Operational Statistics

Aircraft based on the field: 2
Single engine airplanes: 2
    
Aircraft operations: avg 38/week *
60% local general aviation
40% transient general aviation
* for 12-month period ending 30 April 2019

Additional Remarks

DEER ON & INVOF ARPT.
FOR CD CTC ROCHESTER APCH AT 507-424-8111.

Instrument Procedures

NOTE: All procedures below are presented as PDF files. If you need a reader for these files, you should download the free Adobe Reader.

NOT FOR NAVIGATION. Please procure official charts for flight.
FAA instrument procedures published for use from 6 October 2022 at 0901Z to 3 November 2022 at 0900Z.

 
IAPs - Instrument Approach Procedures
RNAV (GPS) RWY 34 **CHANGED**   download (200KB)
VOR-A **CHANGED**   download (174KB)
NOTE: Special Take-Off Minimums/Departure Procedures apply **CHANGED**   download (406KB)

Other nearby airports with instrument procedures:

KONA - Winona Municipal Airport-Max Conrad Field (17 nm N)
KFKA - Fillmore County Airport (17 nm SW)
KCHU - Houston County Airport (19 nm SE)
KLSE - La Crosse Regional Airport (25 nm E)
KRST - Rochester International Airport (30 nm W)
 
Loc | Ops | Rwys | IFR | FBO | Links
Com | Nav | Svcs | Stats | Notes
Area around 55Y (Rushford Municipal Airport/Robert W Bunke Field)
 
Road maps at: MapQuest Bing Google
 
Aerial photo
WARNING: Photo may not be current or correct
Aerial photo of 55Y (Rushford Municipal Airport/Robert W Bunke Field)
Photo by Russ Marsolek

Do you have a better or more recent aerial photo of Rushford Municipal Airport/Robert W Bunke Field that you would like to share? If so, please send us your photo.

 
Sectional chart

 
Airport distance calculator
Flying to Rushford Municipal Airport/Robert W Bunke Field? Find the distance to fly.

From to 55Y

Sunrise and sunset
Times for 07-Oct-2022
 Local
(UTC-5)
 Zulu
(UTC)
Morning civil twilight06:4411:44
Sunrise07:1312:13
Sunset18:3723:37
Evening civil twilight19:0600:06

Current date and time
Zulu (UTC)  07-Oct-2022 17:11:47
Local (UTC-5)  07-Oct-2022 12:11:47
 
METAR
KONA 
16nm N 
071655Z AUTO 00000KT 10SM SCT031 BKN037 OVC070 08/00 A3052 RMK AO2
KFKA 
17nm SW 
071655Z AUTO 36006KT 350V050 7SM BKN030 BKN036 BKN060 08/00 A3052 RMK AO2 T00810003
KLSE 
25nm E 
071653Z 34007KT 10SM FEW036 11/00 A3051 RMK AO2 SLP335 T01060000
KRST 
29nm W 
071654Z 34004KT 10SM FEW024 OVC065 07/01 A3053 RMK AO2 SLP347 T00720011
K9MN 
31nm NW 
071655Z AUTO 30003KT 10SM BKN024 OVC065 07/00 A3053 RMK AO1 T00700001
TAF
KLSE 
25nm E 
071139Z 0712/0812 36006KT P6SM SCT025 TEMPO 0712/0713 BKN025 FM071700 34007KT P6SM BKN040 FM072300 30006KT P6SM SCT120
KRST 
29nm W 
071130Z 0712/0812 02006KT P6SM SCT025 FM071400 01006KT P6SM SCT025 BKN035 TEMPO 0714/0717 BKN025 FM072300 30006KT P6SM SCT150
NOTAMs
Click for the latest NOTAMs
NOTAMs are issued by the DoD/FAA and will open in a separate window not controlled by AirNav.

 

 
 

FBO, Fuel Providers, and Aircraft Ground Support

  
 Business Name 
 
 Contact 
 
 Services / Description 
 
Fuel Prices
 
Comments
  
 City of Rushford
507-864-2444
[web site]
[email]
Airport management, Aviation fuel, Aircraft parking (ramp or tiedown), Hangars, Passenger terminal and lounge, Rental cars delivered, Courtesy transportation, ...

More info about City of Rushford
100LL
SS $5.94 
 Updated 06-Oct-2022
 
   1 read write
SS=Self service
Update Fuel Prices
 

Would you like to see your business listed on this page?

 If your business provides an interesting product or service to pilots, flight crews, aircraft, or users of the Rushford Municipal Airport/Robert W Bunke Field, you should consider listing it here.  To start the listing process, click on the button below
 
Add a business
 

Other Pages about Rushford Municipal Airport/Robert W Bunke Field

www.rushford.govoffice.com/index.asp?SEC=E4507E08-19A6-48C3-B18E-862D748FF6CB&DE=66036454-0F79-4486-AA7A-E3D9801C3CB3&Type=B_BASIC
 
Update a link
 
Copyright © AirNav, LLC. All rights reserved. Privacy Policy  Contact